createdAt,value
2022-10-03T00:02:35.258Z,98415.31
2022-10-03T00:05:21.275Z,98412.31
2022-10-03T00:08:00.289Z,98415.47
2022-10-03T00:10:40.916Z,98414.06
2022-10-03T00:13:18.044Z,98412.66
2022-10-03T00:15:53.712Z,98411.59
2022-10-03T00:18:33.836Z,98407.55
2022-10-03T00:21:15.059Z,98403.48
2022-10-03T00:23:49.937Z,98406.16
2022-10-03T00:26:31.879Z,98401.40
2022-10-03T00:29:24.734Z,98396.48
2022-10-03T00:32:00.106Z,98399.30
2022-10-03T00:34:38.046Z,98393.84
2022-10-03T00:37:19.739Z,98393.83
2022-10-03T00:40:04.194Z,98392.60
2022-10-03T00:42:58.888Z,98392.92
2022-10-03T00:46:06.570Z,98393.78
2022-10-03T00:49:01.913Z,98394.86
2022-10-03T00:51:47.392Z,98390.11
2022-10-03T00:54:31.621Z,98381.98
2022-10-03T00:57:13.692Z,98386.23
2022-10-03T01:00:02.472Z,98381.99
2022-10-03T01:02:41.093Z,98379.33
2022-10-03T01:05:18.623Z,98377.92
2022-10-03T01:08:22.048Z,98370.52
2022-10-03T01:10:55.544Z,98368.92
2022-10-03T01:13:34.705Z,98371.03
2022-10-03T01:16:14.242Z,98369.98
2022-10-03T01:18:54.528Z,98371.03
2022-10-03T01:21:31.501Z,98371.02
2022-10-03T01:24:37.137Z,98374.91
2022-10-03T01:27:07.479Z,98373.83
2022-10-03T01:30:09.730Z,98373.28
2022-10-03T01:32:47.192Z,98371.69
2022-10-03T01:35:27.101Z,98376.45
2022-10-03T01:38:05.780Z,98375.92
2022-10-03T01:40:38.795Z,98381.05
2022-10-03T01:43:12.603Z,98374.90
2022-10-03T01:45:59.176Z,98381.77
2022-10-03T01:48:34.545Z,98376.31
2022-10-03T01:51:10.890Z,98366.62
2022-10-03T01:53:50.468Z,98369.27
2022-10-03T01:56:27.429Z,98370.85
2022-10-03T01:59:02.728Z,98374.02
2022-10-03T02:01:40.812Z,98371.35
2022-10-03T02:04:15.568Z,98364.16
2022-10-03T02:06:53.157Z,98363.48
2022-10-03T02:09:29.620Z,98358.56
2022-10-03T02:12:16.875Z,98361.00
2022-10-03T02:14:53.598Z,98362.05
2022-10-03T02:17:30.456Z,98364.52
2022-10-03T02:20:08.199Z,98365.40
2022-10-03T02:22:45.163Z,98363.83
2022-10-03T02:25:25.114Z,98367.18
2022-10-03T02:28:23.379Z,98363.69
2022-10-03T02:31:10.043Z,98370.20
2022-10-03T02:33:52.397Z,98367.73
2022-10-03T02:36:56.122Z,98372.48
2022-10-03T02:40:11.271Z,98378.79
2022-10-03T02:42:58.215Z,98383.09
2022-10-03T02:45:46.786Z,98381.91
2022-10-03T02:48:55.562Z,98386.86
2022-10-03T02:51:51.079Z,98381.40
2022-10-03T02:54:51.426Z,98380.71
2022-10-03T02:57:47.976Z,98382.29
2022-10-03T03:00:20.790Z,98382.11
2022-10-03T03:03:08.537Z,98382.08
2022-10-03T03:06:20.955Z,98381.54
2022-10-03T03:09:21.801Z,98379.65
2022-10-03T03:12:41.344Z,98382.48
2022-10-03T03:15:44.341Z,98382.61
2022-10-03T03:18:22.069Z,98386.13
2022-10-03T03:21:10.777Z,98386.48
2022-10-03T03:23:58.420Z,98385.23
2022-10-03T03:26:56.534Z,98381.70
2022-10-03T03:29:35.394Z,98379.56
2022-10-03T03:32:11.848Z,98378.52
2022-10-03T03:34:48.913Z,98378.86
2022-10-03T03:37:22.369Z,98376.04
2022-10-03T03:40:08.711Z,98375.48
2022-10-03T03:42:59.741Z,98376.69
2022-10-03T03:45:40.560Z,98378.11
2022-10-03T03:48:22.574Z,98377.58
2022-10-03T03:51:00.298Z,98381.45
2022-10-03T03:53:46.984Z,98374.75
2022-10-03T03:56:38.232Z,98371.92
2022-10-03T03:59:19.141Z,98371.92
2022-10-03T04:01:59.003Z,98378.61
2022-10-03T04:04:41.763Z,98375.23
2022-10-03T04:07:21.943Z,98374.35
2022-10-03T04:10:05.097Z,98374.15
2022-10-03T04:12:43.506Z,98372.39
2022-10-03T04:15:31.181Z,98371.53
2022-10-03T04:18:30.235Z,98370.81
2022-10-03T04:21:21.091Z,98365.54
2022-10-03T04:24:07.689Z,98367.34
2022-10-03T04:26:46.338Z,98371.59
2022-10-03T04:29:38.636Z,98369.63
2022-10-03T04:32:21.344Z,98370.89
2022-10-03T04:35:10.189Z,98367.50
2022-10-03T04:37:46.606Z,98372.81
2022-10-03T04:40:33.461Z,98369.67
2022-10-03T04:43:10.091Z,98371.33
2022-10-03T04:45:56.847Z,98376.64
2022-10-03T04:48:34.060Z,98374.92
2022-10-03T04:51:12.206Z,98380.54
2022-10-03T04:53:53.573Z,98388.14
2022-10-03T04:56:35.937Z,98393.11
2022-10-03T04:59:12.744Z,98386.11
2022-10-03T05:01:47.662Z,98383.33
2022-10-03T05:04:25.528Z,98398.31
2022-10-03T05:07:03.013Z,98392.89
2022-10-03T05:09:39.452Z,98394.52
2022-10-03T05:12:15.804Z,98393.65
2022-10-03T05:14:56.905Z,98390.27
2022-10-03T05:17:37.619Z,98389.56
2022-10-03T05:20:22.911Z,98388.86
2022-10-03T05:22:57.094Z,98385.66
2022-10-03T05:25:39.359Z,98386.02
2022-10-03T05:28:22.191Z,98388.45
2022-10-03T05:30:57.523Z,98398.31
2022-10-03T05:33:33.565Z,98396.53
2022-10-03T05:36:14.835Z,98397.42
2022-10-03T05:39:19.883Z,98398.80
2022-10-03T05:42:11.163Z,98398.96
2022-10-03T05:44:46.348Z,98395.44
2022-10-03T05:47:39.804Z,98397.54
2022-10-03T05:50:41.662Z,98402.25
2022-10-03T05:53:25.819Z,98396.80
2022-10-03T05:56:05.934Z,98400.27
2022-10-03T05:58:54.098Z,98401.86
2022-10-03T06:01:38.019Z,98398.15
2022-10-03T06:04:33.131Z,98405.21
2022-10-03T06:07:13.758Z,98405.22
2022-10-03T06:10:10.286Z,98404.16
2022-10-03T06:12:46.874Z,98412.07
2022-10-03T06:15:33.634Z,98423.31
2022-10-03T06:18:22.411Z,98423.28
2022-10-03T06:21:16.343Z,98423.10
2022-10-03T06:24:27.327Z,98426.77
2022-10-03T06:27:18.311Z,98424.77
2022-10-03T06:30:17.854Z,98420.29
2022-10-03T06:33:24.530Z,98412.42
2022-10-03T06:36:28.042Z,98418.00
2022-10-03T06:39:47.271Z,98410.55
2022-10-03T06:42:44.982Z,98419.35
2022-10-03T06:45:59.744Z,98418.09
2022-10-03T06:49:03.467Z,98424.06
2022-10-03T06:52:08.062Z,98427.86
2022-10-03T06:55:05.759Z,98432.29
2022-10-03T06:57:52.393Z,98429.14
2022-10-03T07:00:22.299Z,98433.69
2022-10-03T07:03:42.335Z,98435.84
2022-10-03T07:06:33.598Z,98433.38
2022-10-03T07:09:42.673Z,98437.06
2022-10-03T07:12:46.909Z,98430.13
2022-10-03T07:16:04.746Z,98433.96
2022-10-03T07:19:03.665Z,98433.70
2022-10-03T07:21:59.817Z,98440.67
2022-10-03T07:25:04.125Z,98439.20
2022-10-03T07:27:50.962Z,98439.63
2022-10-03T07:30:22.088Z,98436.20
2022-10-03T07:33:24.604Z,98434.52
2022-10-03T07:36:41.146Z,98435.80
2022-10-03T07:39:42.397Z,98435.02
2022-10-03T07:42:44.737Z,98435.72
2022-10-03T07:45:40.915Z,98432.59
2022-10-03T07:48:38.775Z,98431.64
2022-10-03T07:51:15.468Z,98431.08
2022-10-03T07:54:19.154Z,98430.92
2022-10-03T07:57:15.960Z,98433.02
2022-10-03T08:00:14.403Z,98440.25
2022-10-03T08:03:22.447Z,98437.34
2022-10-03T08:06:15.141Z,98447.21
2022-10-03T08:09:27.076Z,98442.27
2022-10-03T08:12:33.447Z,98450.05
2022-10-03T08:15:12.795Z,98447.53
2022-10-03T08:18:13.139Z,98454.59
2022-10-03T08:20:50.262Z,98458.52
2022-10-03T08:23:58.370Z,98458.45
2022-10-03T08:26:38.951Z,98463.16
2022-10-03T08:29:16.942Z,98460.97
2022-10-03T08:32:36.935Z,98458.31
2022-10-03T08:35:22.480Z,98453.57
2022-10-03T08:38:33.471Z,98455.80
2022-10-03T08:41:22.767Z,98454.87
2022-10-03T08:44:21.195Z,98455.05
2022-10-03T08:47:36.401Z,98451.70
2022-10-03T08:50:40.876Z,98456.83
2022-10-03T08:53:31.983Z,98449.17
2022-10-03T08:56:07.177Z,98453.67
2022-10-03T08:59:26.099Z,98455.08
2022-10-03T09:02:25.300Z,98449.52
2022-10-03T09:05:17.757Z,98450.42
2022-10-03T09:08:26.373Z,98444.83
2022-10-03T09:11:17.253Z,98450.89
2022-10-03T09:14:23.063Z,98450.58
2022-10-03T09:17:11.371Z,98450.14
2022-10-03T09:20:13.923Z,98452.70
2022-10-03T09:23:25.861Z,98453.98
2022-10-03T09:26:20.135Z,98455.59
2022-10-03T09:29:25.103Z,98456.45
2022-10-03T09:32:28.811Z,98455.16
2022-10-03T09:35:30.563Z,98454.76
2022-10-03T09:38:22.545Z,98452.64
2022-10-03T09:41:28.205Z,98458.60
2022-10-03T09:44:15.439Z,98456.73
2022-10-03T09:47:18.921Z,98456.95
2022-10-03T09:50:36.353Z,98456.03
2022-10-03T09:53:37.427Z,98454.48
2022-10-03T09:56:33.481Z,98457.29
2022-10-03T09:59:20.600Z,98452.88
2022-10-03T10:01:54.401Z,98452.83
2022-10-03T10:05:09.294Z,98456.54
2022-10-03T10:08:14.314Z,98457.95
2022-10-03T10:11:18.791Z,98460.34
2022-10-03T10:14:16.997Z,98462.66
2022-10-03T10:17:18.873Z,98462.61
2022-10-03T10:20:04.032Z,98464.61
2022-10-03T10:23:10.605Z,98458.52
2022-10-03T10:26:10.231Z,98465.02
2022-10-03T10:29:00.253Z,98463.17
2022-10-03T10:32:09.722Z,98463.48
2022-10-03T10:35:29.685Z,98473.80
2022-10-03T10:38:25.399Z,98473.41
2022-10-03T10:41:30.661Z,98470.95
2022-10-03T10:44:40.049Z,98475.42
2022-10-03T10:47:27.461Z,98479.92
2022-10-03T10:50:28.119Z,98475.89
2022-10-03T10:53:40.048Z,98479.60
2022-10-03T10:57:11.529Z,98474.27
2022-10-03T11:00:08.531Z,98480.05
2022-10-03T11:03:18.093Z,98481.41
2022-10-03T11:06:31.191Z,98483.15
2022-10-03T11:09:31.150Z,98486.14
2022-10-03T11:12:42.190Z,98488.74
2022-10-03T11:15:48.972Z,98489.06
2022-10-03T11:19:04.360Z,98496.04
2022-10-03T11:22:27.397Z,98502.55
2022-10-03T11:25:30.162Z,98508.53
2022-10-03T11:28:40.314Z,98513.95
2022-10-03T11:31:47.216Z,98518.58
2022-10-03T11:35:08.726Z,98523.87
2022-10-03T11:37:47.037Z,98521.16
2022-10-03T11:40:27.672Z,98520.16
2022-10-03T11:43:14.649Z,98514.68
2022-10-03T11:45:49.169Z,98512.88
2022-10-03T11:48:34.157Z,98509.09
2022-10-03T11:51:07.113Z,98509.63
2022-10-03T11:53:41.538Z,98506.70
2022-10-03T11:56:43.708Z,98503.13
2022-10-03T11:59:35.604Z,98507.75
2022-10-03T12:02:15.466Z,98518.73
2022-10-03T12:04:51.393Z,98516.41
2022-10-03T12:07:49.821Z,98524.97
2022-10-03T12:10:29.619Z,98524.98
2022-10-03T12:13:01.912Z,98525.88
2022-10-03T12:15:35.538Z,98529.92
2022-10-03T12:18:09.520Z,98533.67
2022-10-03T12:21:08.958Z,98544.10
2022-10-03T12:24:00.269Z,98541.21
2022-10-03T12:26:43.735Z,98539.30
2022-10-03T12:29:17.983Z,98544.88
2022-10-03T12:31:57.128Z,98543.39
2022-10-03T12:34:35.319Z,98550.26
2022-10-03T12:37:17.731Z,98549.39
2022-10-03T12:39:51.255Z,98546.92
2022-10-03T12:42:28.735Z,98549.23
2022-10-03T12:45:01.473Z,98549.42
2022-10-03T12:47:56.545Z,98550.38
2022-10-03T12:50:42.619Z,98552.27
2022-10-03T12:53:30.577Z,98549.90
2022-10-03T12:56:13.458Z,98557.30
2022-10-03T12:58:55.417Z,98559.64
2022-10-03T13:01:39.117Z,98562.91
2022-10-03T13:04:17.902Z,98564.95
2022-10-03T13:07:04.657Z,98559.77
2022-10-03T13:10:03.623Z,98553.29
2022-10-03T13:12:49.625Z,98556.84
2022-10-03T13:15:41.261Z,98559.05
2022-10-03T13:18:18.712Z,98555.30
2022-10-03T13:20:59.495Z,98555.64
2022-10-03T13:23:35.261Z,98547.16
2022-10-03T13:26:11.887Z,98542.31
2022-10-03T13:29:04.164Z,98547.56
2022-10-03T13:31:37.339Z,98554.23
2022-10-03T13:34:18.363Z,98553.26
2022-10-03T13:36:53.466Z,98551.92
2022-10-03T13:39:25.405Z,98565.34
2022-10-03T13:42:10.271Z,98562.80
2022-10-03T13:44:40.554Z,98555.04
2022-10-03T13:47:25.195Z,98554.40
2022-10-03T13:49:56.668Z,98547.20
2022-10-03T13:52:37.168Z,98557.66
2022-10-03T13:55:28.558Z,98561.66
2022-10-03T13:58:19.311Z,98564.80
2022-10-03T14:01:06.836Z,98568.97
2022-10-03T14:03:45.362Z,98572.17
2022-10-03T14:06:26.043Z,98572.73
2022-10-03T14:09:27.642Z,98572.59
2022-10-03T14:12:03.321Z,98572.45
2022-10-03T14:15:02.924Z,98573.52
2022-10-03T14:17:39.513Z,98579.16
2022-10-03T14:20:19.183Z,98572.58
2022-10-03T14:22:57.517Z,98571.89
2022-10-03T14:25:28.645Z,98578.77
2022-10-03T14:28:03.983Z,98579.77
2022-10-03T14:31:05.134Z,98580.75
2022-10-03T14:33:40.968Z,98585.72
2022-10-03T14:36:33.609Z,98583.66
2022-10-03T14:39:12.956Z,98585.89
2022-10-03T14:41:46.741Z,98587.59
2022-10-03T14:44:19.199Z,98595.57
2022-10-03T14:46:54.463Z,98594.73
2022-10-03T14:52:27.472Z,98598.19
2022-10-03T14:54:58.410Z,98593.61
2022-10-03T14:57:39.626Z,98593.05
2022-10-03T15:00:34.441Z,98591.48
2022-10-03T15:03:21.545Z,98601.77
2022-10-03T15:06:05.241Z,98601.57
2022-10-03T15:08:39.711Z,98605.98
2022-10-03T15:11:12.603Z,98605.13
2022-10-03T15:13:44.930Z,98612.30
2022-10-03T15:16:18.346Z,98613.33
2022-10-03T15:18:53.235Z,98609.81
2022-10-03T15:21:22.430Z,98604.16
2022-10-03T15:23:57.312Z,98609.27
2022-10-03T15:26:28.371Z,98602.64
2022-10-03T15:29:05.662Z,98603.38
2022-10-03T15:31:37.976Z,98604.84
2022-10-03T15:34:20.221Z,98605.05
2022-10-03T15:36:55.557Z,98603.95
2022-10-03T15:39:29.709Z,98604.64
2022-10-03T15:42:08.015Z,98606.97
2022-10-03T15:44:39.066Z,98605.23
2022-10-03T15:47:11.164Z,98609.17
2022-10-03T15:49:44.813Z,98617.38
2022-10-03T15:52:26.069Z,98626.58
2022-10-03T15:55:14.329Z,98623.29
2022-10-03T15:57:47.711Z,98631.80
2022-10-03T16:00:26.870Z,98630.73
2022-10-03T16:03:05.670Z,98633.04
2022-10-03T16:05:36.977Z,98628.67
2022-10-03T16:08:09.795Z,98632.73
2022-10-03T16:10:41.282Z,98638.58
2022-10-03T16:13:27.217Z,98644.78
2022-10-03T16:16:11.208Z,98645.30
2022-10-03T16:18:47.880Z,98647.10
2022-10-03T16:21:24.622Z,98656.48
2022-10-03T16:23:55.440Z,98655.80
2022-10-03T16:26:29.348Z,98662.48
2022-10-03T16:29:09.289Z,98657.54
2022-10-03T16:31:43.441Z,98658.05
2022-10-03T16:34:16.476Z,98661.45
2022-10-03T16:36:46.629Z,98662.34
2022-10-03T16:39:23.324Z,98656.14
2022-10-03T16:41:54.690Z,98659.61
2022-10-03T16:44:29.027Z,98665.95
2022-10-03T16:47:03.352Z,98667.78
2022-10-03T16:49:56.576Z,98669.59
2022-10-03T16:52:31.880Z,98669.95
2022-10-03T16:55:04.033Z,98675.42
2022-10-03T16:57:45.596Z,98673.52
2022-10-03T17:00:21.196Z,98673.70
2022-10-03T17:02:50.519Z,98672.88
2022-10-03T17:05:21.022Z,98675.39
2022-10-03T17:07:54.338Z,98674.49
2022-10-03T17:10:34.053Z,98673.58
2022-10-03T17:13:09.574Z,98674.10
2022-10-03T17:15:48.215Z,98676.69
2022-10-03T17:18:25.665Z,98678.23
2022-10-03T17:21:01.934Z,98675.93
2022-10-03T17:23:37.138Z,98678.97
2022-10-03T17:26:10.819Z,98683.71
2022-10-03T17:28:44.569Z,98679.48
2022-10-03T17:31:25.443Z,98681.55
2022-10-03T17:34:00.508Z,98681.34
2022-10-03T17:37:02.152Z,98682.73
2022-10-03T17:39:40.852Z,98686.09
2022-10-03T17:42:22.965Z,98682.41
2022-10-03T17:44:59.060Z,98678.21
2022-10-03T17:47:35.101Z,98680.88
2022-10-03T17:50:12.460Z,98685.79
2022-10-03T17:52:43.495Z,98682.98
2022-10-03T17:55:18.721Z,98681.22
2022-10-03T17:57:51.959Z,98683.70
2022-10-03T18:00:22.652Z,98685.11
2022-10-03T18:02:58.201Z,98683.89
2022-10-03T18:05:29.799Z,98680.88
2022-10-03T18:08:05.108Z,98683.17
2022-10-03T18:10:38.075Z,98684.74
2022-10-03T18:13:17.440Z,98682.95
2022-10-03T18:16:14.256Z,98684.20
2022-10-03T18:18:53.980Z,98683.48
2022-10-03T18:21:58.142Z,98691.40
2022-10-03T18:24:59.437Z,98694.20
2022-10-03T18:27:45.561Z,98695.25
2022-10-03T18:30:20.099Z,98705.45
2022-10-03T18:32:50.141Z,98705.85
2022-10-03T18:35:22.998Z,98707.05
2022-10-03T18:37:57.956Z,98710.04
2022-10-03T18:40:29.687Z,98709.48
2022-10-03T18:43:00.318Z,98708.25
2022-10-03T18:45:33.560Z,98706.83
2022-10-03T18:48:10.009Z,98704.16
2022-10-03T18:50:52.990Z,98706.65
2022-10-03T18:53:29.358Z,98708.06
2022-10-03T18:56:03.494Z,98711.05
2022-10-03T18:58:35.576Z,98710.89
2022-10-03T19:01:07.515Z,98709.65
2022-10-03T19:03:38.430Z,98711.20
2022-10-03T19:06:19.264Z,98709.98
2022-10-03T19:08:53.485Z,98707.52
2022-10-03T19:11:25.123Z,98710.19
2022-10-03T19:13:58.733Z,98713.42
2022-10-03T19:16:58.532Z,98713.10
2022-10-03T19:19:32.683Z,98713.77
2022-10-03T19:22:07.026Z,98723.69
2022-10-03T19:24:57.318Z,98718.27
2022-10-03T19:27:42.836Z,98720.38
2022-10-03T19:30:19.435Z,98717.23
2022-10-03T19:32:53.693Z,98724.48
2022-10-03T19:35:25.070Z,98723.30
2022-10-03T19:37:56.934Z,98729.34
2022-10-03T19:40:36.225Z,98730.30
2022-10-03T19:43:23.449Z,98734.93
2022-10-03T19:45:57.867Z,98736.91
2022-10-03T19:48:28.123Z,98737.13
2022-10-03T19:51:09.807Z,98736.96
2022-10-03T19:53:42.431Z,98736.28
2022-10-03T19:56:14.958Z,98736.98
2022-10-03T19:58:46.812Z,98735.05
2022-10-03T20:01:16.046Z,98741.05
2022-10-03T20:03:51.465Z,98738.38
2022-10-03T20:06:25.420Z,98737.13
2022-10-03T20:08:57.028Z,98733.60
2022-10-03T20:11:41.317Z,98733.59
2022-10-03T20:14:16.626Z,98733.23
2022-10-03T20:16:47.630Z,98730.25
2022-10-03T20:19:22.489Z,98725.33
2022-10-03T20:21:55.900Z,98729.01
2022-10-03T20:24:31.714Z,98731.15
2022-10-03T20:27:11.715Z,98735.55
2022-10-03T20:29:47.207Z,98735.36
2022-10-03T20:32:18.848Z,98736.58
2022-10-03T20:34:54.532Z,98734.46
2022-10-03T20:37:54.106Z,98730.60
2022-10-03T20:40:33.615Z,98730.79
2022-10-03T20:43:21.733Z,98732.91
2022-10-03T20:45:58.778Z,98726.05
2022-10-03T20:48:30.709Z,98728.35
2022-10-03T20:51:01.813Z,98725.88
2022-10-03T20:53:32.635Z,98728.52
2022-10-03T20:56:04.996Z,98727.98
2022-10-03T20:58:35.874Z,98727.44
2022-10-03T21:01:08.843Z,98726.90
2022-10-03T21:03:42.309Z,98732.19
2022-10-03T21:06:19.510Z,98726.35
2022-10-03T21:08:50.433Z,98726.55
2022-10-03T21:11:23.395Z,98728.11
2022-10-03T21:13:56.086Z,98726.89
2022-10-03T21:16:27.820Z,98730.40
2022-10-03T21:18:59.226Z,98731.60
2022-10-03T21:21:37.301Z,98727.38
2022-10-03T21:24:15.585Z,98734.26
2022-10-03T21:26:47.506Z,98729.67
2022-10-03T21:29:28.105Z,98733.38
2022-10-03T21:32:11.621Z,98734.27
2022-10-03T21:34:47.657Z,98733.38
2022-10-03T21:37:21.138Z,98728.97
2022-10-03T21:39:59.680Z,98733.73
2022-10-03T21:42:33.640Z,98736.20
2022-10-03T21:45:11.531Z,98732.83
2022-10-03T21:47:46.569Z,98735.67
2022-10-03T21:50:20.305Z,98735.13
2022-10-03T21:53:11.254Z,98737.08
2022-10-03T21:55:59.342Z,98737.08
2022-10-03T21:58:41.085Z,98737.25
2022-10-03T22:01:16.788Z,98731.73
2022-10-03T22:03:51.638Z,98725.54
2022-10-03T22:06:24.452Z,98724.85
2022-10-03T22:08:54.534Z,98723.80
2022-10-03T22:11:34.853Z,98720.27
2022-10-03T22:14:12.945Z,98717.27
2022-10-03T22:16:47.761Z,98722.92
2022-10-03T22:19:22.125Z,98721.01
2022-10-03T22:22:02.770Z,98722.59
2022-10-03T22:24:39.792Z,98725.05
2022-10-03T22:27:12.686Z,98727.02
2022-10-03T22:29:47.064Z,98722.62
2022-10-03T22:32:20.980Z,98729.13
2022-10-03T22:34:54.663Z,98729.48
2022-10-03T22:37:25.484Z,98729.84
2022-10-03T22:39:54.806Z,98730.71
2022-10-03T22:42:23.960Z,98733.14
2022-10-03T22:44:54.807Z,98728.73
2022-10-03T22:47:26.672Z,98732.77
2022-10-03T22:49:58.363Z,98727.48
2022-10-03T22:52:28.754Z,98729.76
2022-10-03T22:54:57.727Z,98724.65
2022-10-03T22:57:30.902Z,98720.42
2022-10-03T23:00:08.392Z,98721.13
2022-10-03T23:02:41.006Z,98725.36
2022-10-03T23:05:15.969Z,98721.64
2022-10-03T23:08:01.902Z,98718.10
2022-10-03T23:10:39.943Z,98718.65
2022-10-03T23:13:14.482Z,98717.95
2022-10-03T23:15:48.025Z,98720.24
2022-10-03T23:18:38.812Z,98711.78
2022-10-03T23:21:09.584Z,98710.41
2022-10-03T23:23:57.147Z,98711.67
2022-10-03T23:26:49.991Z,98710.45
2022-10-03T23:29:20.506Z,98715.38
2022-10-03T23:32:07.013Z,98718.40
2022-10-03T23:35:16.451Z,98715.06
2022-10-03T23:37:47.106Z,98713.66
2022-10-03T23:40:36.081Z,98714.38
2022-10-03T23:43:25.124Z,98711.91
2022-10-03T23:45:57.105Z,98710.33
2022-10-03T23:48:27.953Z,98707.69
2022-10-03T23:50:59.841Z,98699.91
2022-10-03T23:53:33.592Z,98704.13
2022-10-03T23:56:03.357Z,98708.70
2022-10-03T23:58:35.998Z,98712.05
